Wetterdaten für den Flughafen Lübeck Blankensee


ADDS - METARS form results Aviation Digital Data Service (ADDS) Output produced by METARs form (2226 UTC 25 June 2022)
found at http://www.aviationweather.gov/metar/data/
 
EDHL 252220Z AUTO 00000KT 9999 3300 // FEW130/// 18/18 Q1013
TAF EDHL 251700Z 2518/2521 06006KT 9999 SCT045 PROB30 TEMPO 2518/2519 17015G25KT 3500 TSRA BKN025CB

Nord: Hamburg, Lübeck
Ost: Schwerin, Rostock
Süd: Hannover
West: Bremen, Nordhloz

 

Copyright © 2016 Flugschule Hohensee